Nearby METAR Reports

 

KSQL - San Carlos Airpo, California, USA
Distance from station: N 0mi, 1km
Updated: Sat, 18-Aug-2018 10:50am PDT
Clear
Clear
 Wind from NNE
Wind: NNE 7 mph , 11 km/h
Temperature: 68°F , 20°C
Dew Point: 59°F , 15°C
Humidity: 73%
Barometer: 30.06 inHg , 1017.9 hPa
Clouds: Clear
Visibility: 10 miles , 16 km
2018/08/18 17:50 KSQL 181750Z 02006KT 10SM SKC 20/15 A3006
KPAO - Palo Alto, California, USA
Distance from station: ESE 8mi, 13km
Updated: Sat, 18-Aug-2018 10:47am PDT
Clear
Clear
 Wind from N
Wind: N 8 mph , 13 km/h
Temperature: 68°F , 20°C
Dew Point: 61°F , 16°C
Humidity: 78%
Barometer: 30.07 inHg , 1018.3 hPa
Clouds: Clear
Visibility: 8 miles , 13 km
2018/08/18 17:47 KPAO 181747Z 36007KT 8SM SKC 20/16 A3007
 
KSFO - San Francisco, California, USA
Distance from station: NW 10mi, 16km
Updated: Sat, 18-Aug-2018 10:56am PDT
Few Clouds
Few Clouds
 Wind from NW
Wind: NW 10 mph , 17 km/h
Temperature: 66°F , 19°C
Dew Point: 54°F , 12°C
Humidity: 64%
Barometer: 30.06 inHg , 1017.9 hPa
Clouds: Few Clouds
Visibility: 10 miles , 16 km
Cloud details: Few Clouds 900 ft
2018/08/18 17:56 KSFO 181756Z 32009KT 10SM FEW009 19/12 A3006 RMK AO2 SLP180 T01890117 10194 20111 52003
KHWD - Hayward, California, USA
Distance from station: NE 13mi, 21km
Updated: Sat, 18-Aug-2018 10:54am PDT
Clear
Clear
 Wind from W
Wind: W 7 mph , 11 km/h
Temperature: 72°F , 22°C
Dew Point: 57°F , 14°C
Humidity: 61%
Barometer: 30.06 inHg , 1017.9 hPa
Clouds: Clear
Visibility: 9 miles , 14 km
2018/08/18 17:54 KHWD 181754Z 28006KT 9SM CLR 22/14 A3006 RMK AO2 SLP188 T02220144 10228 20133 51002
 
KNUQ - Moffett Nas/Mtn, California, USA
Distance from station: SE 13mi, 22km
Updated: Sat, 18-Aug-2018 10:56am PDT
Clear
Clear
 Wind from N
Wind: N 5 mph , 7 km/h
Temperature: 72°F , 22°C
Dew Point: 59°F , 15°C
Humidity: 65%
Barometer: 30.07 inHg , 1018.3 hPa
Clouds: Clear
Visibility: 10 miles , 16 km
2018/08/18 17:56 KNUQ 181756Z 01004KT 10SM CLR 22/15 A3007 RMK AO2 SLP184 T02220150 10222 20144 51001 $
KHAF - Half Moon Bay, California, USA
Distance from station: W 14mi, 22km
Updated: Sat, 18-Aug-2018 11:15am PDT
Overcast
Overcast
 Wind from SW
Wind: SW 6 mph , 9 km/h
Temperature: 57°F , 14°C
Dew Point: 54°F , 12°C
Humidity: 88%
Barometer: 30.11 inHg , 1019.6 hPa
Clouds: Overcast
Visibility: 7 miles , 11 km
Cloud details: Overcast 400 ft
2018/08/18 18:15 KHAF 181815Z AUTO 23005KT 7SM OVC004 14/12 A3011 RMK AO2
 
KOAK - Oakland, California, USA
Distance from station: N 14mi, 23km
Updated: Sat, 18-Aug-2018 10:53am PDT
Clear
Clear
 Wind from WNW
Wind: WNW 9 mph , 15 km/h
Temperature: 68°F , 20°C
Dew Point: 57°F , 14°C
Humidity: 69%
Barometer: 30.07 inHg , 1018.3 hPa
Clouds: Clear
Visibility: 10 miles , 16 km
2018/08/18 17:53 KOAK 181753Z 29008KT 10SM CLR 20/14 A3007 RMK AO2 SLP181 T02000139 10200 20106 53002
KSJC - San Jose, California, USA
Distance from station: ESE 21mi, 34km
Updated: Sat, 18-Aug-2018 10:53am PDT
Partly cloudy
Partly cloudy
 Wind from calm
Wind: Calm
Temperature: 75°F , 24°C
Dew Point: 55°F , 13°C
Humidity: 50%
Barometer: 30.05 inHg , 1017.6 hPa
Clouds: Partly cloudy
Visibility: 10 miles , 16 km
Cloud details: Few Clouds 100 ft
Few Clouds 1000 ft
Partly cloudy 3000 ft
2018/08/18 17:53 KSJC 181753Z 00000KT 10SM FEW001 FEW010 SCT030 24/13 A3005 RMK AO2 SLP176 FU FEW001 FU FEW010 FU SCT030 T02440133 10250 20144 58001
 
KLVK - Livermore, California, USA
Distance from station: ENE 27mi, 43km
Updated: Sat, 18-Aug-2018 10:53am PDT
Clear
Clear
 Wind from varies
Wind: varies 5 mph , 7 km/h
Temperature: 82°F , 28°C
Dew Point: 52°F , 11°C
Humidity: 35%
Barometer: 30.03 inHg , 1016.9 hPa
Clouds: Clear
Visibility: 10 miles , 16 km
2018/08/18 17:53 KLVK 181753Z VRB04KT 10SM CLR 28/11 A3003 RMK AO2 SLP166 T02780111 10283 20139 58003
KRHV - San Jose/Reid, California, USA
Distance from station: ESE 27mi, 44km
Updated: Sat, 18-Aug-2018 10:47am PDT
Clear
Clear
 Wind from varies
Wind: varies 5 mph , 7 km/h
Temperature: 79°F , 26°C
Dew Point: 55°F , 13°C
Humidity: 45%
Barometer: 30.04 inHg , 1017.3 hPa
Clouds: Clear
Visibility: 10 miles , 16 km
2018/08/18 17:47 KRHV 181747Z VRB04KT 10SM SKC 26/13 A3004
 
KCCR - Concord, California, USA
Distance from station: NNE 35mi, 57km
Updated: Sat, 18-Aug-2018 10:53am PDT
Clear
Clear
 Wind from NNW
Wind: NNW 8 mph , 13 km/h
Temperature: 79°F , 26°C
Dew Point: 55°F , 13°C
Humidity: 45%
Barometer: 30.04 inHg , 1017.3 hPa
Clouds: Clear
Visibility: 10 miles , 16 km
2018/08/18 17:53 KCCR 181753Z 34007KT 290V360 10SM CLR 26/13 A3004 RMK AO2 SLP160 T02560128 10256 20133 51001
KE16 - San Martin, California, USA
Distance from station: SE 46mi, 75km
Updated: Sat, 18-Aug-2018 11:10am PDT
Clear
Clear
 Wind from S
Wind: S 5 mph , 7 km/h
Temperature: 79°F , 26°C
Dew Point: 50°F , 10°C
Humidity: 37%
Barometer: 30.07 inHg , 1018.3 hPa
Clouds: Clear
Visibility: 10 miles , 16 km
2018/08/18 18:10 KE16 181810Z AUTO 18004KT 10SM CLR 26/10 A3007 RMK AO2
 
KDVO - Novato/Gnoss Fld, California, USA
Distance from station: NNW 47mi, 76km
Updated: Sat, 18-Aug-2018 11:15am PDT
Clear
Clear
 Wind from calm
Wind: Calm
Temperature: 75°F , 24°C
Dew Point: 54°F , 12°C
Humidity: 47%
Barometer: 30.06 inHg , 1017.9 hPa
Clouds: Clear
Visibility: 9 miles , 14 km
2018/08/18 18:15 KDVO 181815Z AUTO 00000KT 9SM CLR 24/12 A3006 RMK AO2
KWVI - Watsonville, California, USA
Distance from station: SSE 47mi, 76km
Updated: Sat, 18-Aug-2018 10:53am PDT
Clear
Clear
 Wind from SSW
Wind: SSW 8 mph , 13 km/h
Temperature: 68°F , 20°C
Dew Point: 57°F , 14°C
Humidity: 69%
Barometer: 30.08 inHg , 1018.6 hPa
Clouds: Clear
Visibility: 10 miles , 16 km
2018/08/18 17:53 KWVI 181753Z AUTO 20007KT 10SM CLR 20/14 A3008 RMK AO2 SLP186 T02000139 10200 20122 53003
 
KAPC - Napa, California, USA
Distance from station: N 48mi, 77km
Updated: Sat, 18-Aug-2018 10:54am PDT
Clear
Clear
 Wind from SSW
Wind: SSW 6 mph , 9 km/h
Temperature: 70°F , 21°C
Dew Point: 54°F , 12°C
Humidity: 57%
Barometer: 30.06 inHg , 1017.9 hPa
Clouds: Clear
Visibility: 10 miles , 16 km
2018/08/18 17:54 KAPC 181754Z 20005KT 10SM CLR 21/12 A3006 RMK AO2 SLP172 T02110122 10217 20083 51003
KO69 - Petaluma, California, USA
Distance from station: NNW 54mi, 88km
Updated: Sat, 18-Aug-2018 11:15am PDT
Clear
Clear
 Wind from calm
Wind: Calm
Temperature: 73°F , 23°C
Dew Point: 54°F , 12°C
Humidity: 50%
Barometer: 30.07 inHg , 1018.3 hPa
Clouds: Clear
Visibility: 10 miles , 16 km
2018/08/18 18:15 KO69 181815Z AUTO 00000KT 10SM CLR 23/12 A3007 RMK A01
 
KSUU - Travis Afb/Fairf, California, USA
Distance from station: NNE 55mi, 89km
Updated: Sat, 18-Aug-2018 8:58am PDT
NOT Current
Clear
Clear
 Wind from WSW
Wind: WSW 8 mph , 13 km/h
Temperature: 72°F , 22°C
Dew Point: 50°F , 10°C
Humidity: 47%
Barometer: 30.02 inHg , 1016.6 hPa
Clouds: Clear
Visibility: 10 miles , 16 km
2018/08/18 15:58 KSUU 181558Z AUTO 24007KT 10SM CLR 22/10 A3002 RMK AO2 SLP172 T02220103 $
KCVH - Hollister Muni, California, USA
Distance from station: SE 62mi, 100km
Updated: Sat, 18-Aug-2018 10:55am PDT
Clear
Clear
 Wind from calm
Wind: Calm
Temperature: 77°F , 25°C
Dew Point: 50°F , 10°C
Humidity: 39%
Barometer: 30.06 inHg , 1017.9 hPa
Clouds: Clear
Visibility: 10 miles , 16 km
2018/08/18 17:55 KCVH 181755Z AUTO 00000KT 10SM CLR 25/10 A3006 RMK A01
 
KSCK - Stockton, California, USA
Distance from station: ENE 62mi, 100km
Updated: Sat, 18-Aug-2018 10:55am PDT
Clear
Clear
 Wind from N
Wind: N 6 mph , 9 km/h
Temperature: 88°F , 31°C
Dew Point: 39°F , 4°C
Humidity: 18%
Barometer: 30.02 inHg , 1016.6 hPa
Clouds: Clear
Visibility: 10 miles , 16 km
2018/08/18 17:55 KSCK 181755Z 35005KT 10SM CLR 31/04 A3002 RMK AO2 SLP167 T03060044 10306 20156 50004
KVCB - Vacaville, California, USA
Distance from station: NNE 62mi, 100km
Updated: Sat, 18-Aug-2018 10:53am PDT
Clear
Clear
 Wind from varies
Wind: varies 5 mph , 7 km/h
Temperature: 88°F , 31°C
Dew Point: 50°F , 10°C
Humidity: 27%
Barometer: 30.05 inHg , 1017.6 hPa
Clouds: Clear
Visibility: 10 miles , 16 km
2018/08/18 17:53 KVCB 181753Z AUTO VRB04KT 10SM CLR 31/10 A3005 RMK AO2 SLP173 T03110100 10311 20122 50004